aviador You're here:

KPHF Decoded Metar

NEWPORT NEWS in VA, USA
Report Time2018-05-21 17:54:00
UTC Time2018-05-21 18:24:44
Flight Rules mvfr MVFR
Wind070° at 11 kt
W.Decomp.*RWY 07: 10.9 kt HW 1.7 kt RCW
RWY 02: 5.7 kt HW 9.4 kt RCW
W.Rank070° ranks 6
Current wind is above 070° avg. (7.2)
Visibility9999 m
Phenomena:N/A
Clouds:Overcast 024 Hf
Expected CloudBase > 2,400 ft AGL from Temp-Dew spread
Ceiling2,400 ft
Temp22°C (ISA +7)
Dew Point16°C (69% RH)
AAT20.0°C
QNH1022 hPa
Density Alt804 ft
Elevation39 ft
Report Wrong Elevation
Raw Report
METAR KPHF 211754Z 07011KT 10SM OVC024 22/16 A3018 RMK AO2 SLP218 T02220156
10256 20217 58001=

Extra information for KPHF:More info

Metar Taf Metar & Taf Last 4 Metars F.Rules Stats Wind Profile Meteogram Temp Stats Airport Information Weather charts Add Link Nearby VenuesMetar ALERT Operation Metar Decoded Social comments

AIRNAV info for KPHF